Time;durP1;ratioP1;P1;durP2;ratioP2;P2;SDS_P1;SDS_P2;PMS_P1;PMS_P2;Temp;Humidity;BMP_temperature;BMP_pressure;BME280_temperature;BME280_humidity;BME280_pressure;Samples;Min_cycle;Max_cycle;Signal;HPM_P1;HPM_P2
2024/01/13 00:00:19;;;;;;;11.45;0.98;;;3.10;99.90;;;;;;5048893;28;20041;-59
2024/01/13 00:02:45;;;;;;;11.02;1.17;;;3.10;99.90;;;;;;5046174;28;20558;-59
2024/01/13 00:05:11;;;;;;;15.82;1.30;;;3.10;99.90;;;;;;5030037;28;20053;-60
2024/01/13 00:07:37;;;;;;;9.43;1.08;;;3.10;99.90;;;;;;5044346;28;20486;-56
2024/01/13 00:10:02;;;;;;;16.98;2.00;;;3.10;99.90;;;;;;5044005;28;21174;-52
2024/01/13 00:12:28;;;;;;;21.35;1.60;;;3.10;99.90;;;;;;5031053;28;20073;-53
2024/01/13 00:14:54;;;;;;;21.88;2.88;;;3.20;99.90;;;;;;5045463;28;20076;-52
2024/01/13 00:17:20;;;;;;;26.45;4.45;;;3.10;99.90;;;;;;5031566;28;20394;-56
2024/01/13 00:19:46;;;;;;;17.15;4.75;;;3.10;99.90;;;;;;5030865;28;20060;-54
2024/01/13 00:22:11;;;;;;;19.77;4.65;;;3.20;99.90;;;;;;5043128;28;20052;-61
2024/01/13 00:24:37;;;;;;;21.88;4.47;;;3.20;99.90;;;;;;5044308;28;20036;-53
2024/01/13 00:27:03;;;;;;;26.48;4.07;;;3.20;99.90;;;;;;5029992;28;20051;-55
2024/01/13 00:29:29;;;;;;;14.38;3.75;;;3.30;99.90;;;;;;5048645;28;20064;-55
2024/01/13 00:31:54;;;;;;;23.10;4.78;;;3.30;99.90;;;;;;5043317;28;20044;-49
2024/01/13 00:34:20;;;;;;;27.02;3.97;;;3.30;99.90;;;;;;5045947;28;20123;-58
2024/01/13 00:36:46;;;;;;;19.52;3.30;;;3.30;99.90;;;;;;5026176;28;20131;-54
2024/01/13 00:39:11;;;;;;;17.98;5.07;;;3.20;99.90;;;;;;5024236;28;20040;-60
2024/01/13 00:41:37;;;;;;;16.85;4.90;;;3.30;99.90;;;;;;5025992;28;20412;-59
2024/01/13 00:44:03;;;;;;;22.35;5.03;;;3.20;99.90;;;;;;5047331;28;20047;-59
2024/01/13 00:46:29;;;;;;;21.98;4.82;;;3.20;99.90;;;;;;5048391;28;20490;-59
2024/01/13 00:48:54;;;;;;;23.70;6.00;;;3.20;99.90;;;;;;5046865;28;20079;-51
2024/01/13 00:51:20;;;;;;;8.70;2.17;;;3.30;99.90;;;;;;5011930;28;20040;-58
2024/01/13 00:53:45;;;;;;;10.38;1.88;;;3.30;99.90;;;;;;5043465;28;20041;-49
2024/01/13 00:56:12;;;;;;;4.82;1.48;;;3.30;99.90;;;;;;5041309;28;20089;-59
2024/01/13 00:58:38;;;;;;;14.10;2.95;;;3.30;99.90;;;;;;5042266;28;20033;-56
2024/01/13 01:01:04;;;;;;;12.00;2.30;;;3.30;99.90;;;;;;5043004;28;20079;-55
2024/01/13 01:03:30;;;;;;;6.57;1.08;;;3.30;99.90;;;;;;5050015;28;20041;-53
2024/01/13 01:05:56;;;;;;;14.65;3.08;;;3.30;99.90;;;;;;5047122;28;20037;-58
2024/01/13 01:08:21;;;;;;;8.07;2.00;;;3.10;99.90;;;;;;5034220;28;20045;-47
2024/01/13 01:10:47;;;;;;;5.47;1.02;;;3.10;99.90;;;;;;5029127;28;20455;-53
2024/01/13 01:13:13;;;;;;;4.70;2.13;;;3.00;99.90;;;;;;5046332;28;20037;-60
2024/01/13 01:15:39;;;;;;;14.18;4.75;;;3.10;99.90;;;;;;5029402;28;21589;-56
2024/01/13 01:18:05;;;;;;;0.70;0.50;;;3.10;99.90;;;;;;5034850;28;20396;-58
2024/01/13 01:20:31;;;;;;;7.50;2.45;;;3.20;99.90;;;;;;5046453;28;20430;-52
2024/01/13 01:22:57;;;;;;;11.38;3.92;;;3.10;99.90;;;;;;5044863;28;20056;-59
2024/01/13 01:25:34;;;;;;;8.07;1.40;;;3.20;99.90;;;;;;5045636;28;20136;-54
2024/01/13 01:28:00;;;;;;;1.95;1.60;;;3.20;99.90;;;;;;5043660;28;20486;-54
2024/01/13 01:30:26;;;;;;;1.70;0.88;;;3.10;99.90;;;;;;5045803;28;20045;-59
2024/01/13 01:32:51;;;;;;;1.02;0.60;;;3.20;99.90;;;;;;5042544;28;20114;-52
2024/01/13 01:35:17;;;;;;;1.98;0.80;;;3.20;99.90;;;;;;5045000;28;20084;-61
2024/01/13 01:37:43;;;;;;;2.67;1.17;;;3.20;99.90;;;;;;5043818;28;20382;-59
2024/01/13 01:40:14;;;;;;;4.88;1.30;;;3.20;99.90;;;;;;5042313;28;20072;-58
2024/01/13 01:42:40;;;;;;;6.95;2.90;;;3.30;99.90;;;;;;5043280;28;20111;-58
2024/01/13 01:45:07;;;;;;;7.07;1.60;;;3.20;99.90;;;;;;5045971;28;20491;-56
2024/01/13 01:47:33;;;;;;;7.25;1.20;;;3.20;99.90;;;;;;5029592;28;20048;-57
2024/01/13 01:49:59;;;;;;;6.50;1.85;;;3.30;99.90;;;;;;5025165;28;20063;-57
2024/01/13 01:52:26;;;;;;;1.75;1.45;;;3.20;99.90;;;;;;5016061;28;20052;-58
2024/01/13 01:54:52;;;;;;;11.93;2.97;;;3.30;99.90;;;;;;5040741;28;20418;-55
2024/01/13 01:57:20;;;;;;;19.98;4.43;;;3.20;99.90;;;;;;5028781;28;20045;-59
2024/01/13 01:59:46;;;;;;;13.32;3.13;;;3.20;99.90;;;;;;5041510;28;21070;-54
2024/01/13 02:02:12;;;;;;;13.55;3.90;;;3.20;99.90;;;;;;5039180;28;20041;-52
2024/01/13 02:04:38;;;;;;;14.25;3.60;;;3.30;99.90;;;;;;5036317;28;20556;-57
2024/01/13 02:07:04;;;;;;;4.63;1.15;;;3.20;99.90;;;;;;5041683;28;20387;-51
2024/01/13 02:09:31;;;;;;;1.02;0.63;;;3.10;99.90;;;;;;5052787;28;20056;-49
2024/01/13 02:11:57;;;;;;;3.20;0.65;;;3.10;99.90;;;;;;5045827;28;20966;-52
2024/01/13 02:14:23;;;;;;;1.05;0.52;;;3.20;99.90;;;;;;5044784;28;20045;-54
2024/01/13 02:16:50;;;;;;;2.92;1.00;;;3.20;99.90;;;;;;5052252;28;20170;-61
2024/01/13 02:19:16;;;;;;;5.30;1.30;;;3.20;99.90;;;;;;5041488;28;20068;-58
2024/01/13 02:21:42;;;;;;;1.52;0.57;;;3.30;99.90;;;;;;5050892;28;20048;-59
2024/01/13 02:24:08;;;;;;;4.43;0.80;;;3.30;99.90;;;;;;5031334;28;20505;-59
2024/01/13 02:26:34;;;;;;;10.38;1.15;;;3.30;99.90;;;;;;5031053;28;20041;-50
2024/01/13 02:29:00;;;;;;;1.85;0.90;;;3.30;99.90;;;;;;5047516;28;20503;-59
2024/01/13 02:31:26;;;;;;;7.57;0.90;;;3.20;99.90;;;;;;5044080;28;20053;-54
2024/01/13 02:33:52;;;;;;;3.85;0.52;;;3.30;99.90;;;;;;5046866;28;20125;-57
2024/01/13 02:36:18;;;;;;;3.83;0.85;;;3.20;99.90;;;;;;5031700;28;20048;-57
2024/01/13 02:38:44;;;;;;;7.25;2.08;;;3.20;99.90;;;;;;5032137;28;20348;-59
2024/01/13 02:41:09;;;;;;;8.68;2.50;;;3.30;99.90;;;;;;5032058;28;20048;-55
2024/01/13 02:43:36;;;;;;;16.50;2.78;;;3.30;99.90;;;;;;5032463;28;20044;-60
2024/01/13 02:46:01;;;;;;;2.08;1.60;;;3.40;99.90;;;;;;5048041;28;20390;-55
2024/01/13 02:48:29;;;;;;;5.18;2.47;;;3.40;99.90;;;;;;5042499;28;20040;-57
2024/01/13 02:51:02;;;;;;;2.22;1.25;;;3.30;99.90;;;;;;5048507;28;20472;-54
2024/01/13 02:53:28;;;;;;;11.18;4.30;;;3.20;99.90;;;;;;5041809;28;20084;-51
2024/01/13 02:55:54;;;;;;;11.20;4.13;;;3.20;99.90;;;;;;5041316;28;20052;-59
2024/01/13 02:58:19;;;;;;;22.83;7.57;;;3.20;99.90;;;;;;5047043;28;20490;-54
2024/01/13 03:00:45;;;;;;;12.23;3.70;;;3.20;99.90;;;;;;5042102;28;20052;-60
2024/01/13 03:03:11;;;;;;;10.68;4.60;;;3.20;99.90;;;;;;5045369;28;20500;-50
2024/01/13 03:05:37;;;;;;;1.55;1.45;;;3.20;99.90;;;;;;5042026;28;20120;-54
2024/01/13 03:08:04;;;;;;;1.38;1.27;;;3.30;99.90;;;;;;5046757;28;20487;-59
2024/01/13 03:10:31;;;;;;;1.83;1.65;;;3.30;99.90;;;;;;5046522;28;20060;-58
2024/01/13 03:12:58;;;;;;;10.35;2.67;;;3.30;99.90;;;;;;5039143;28;20049;-57
2024/01/13 03:15:24;;;;;;;4.38;1.77;;;3.30;99.90;;;;;;5049028;28;20335;-59
2024/01/13 03:17:49;;;;;;;5.50;2.42;;;3.20;99.90;;;;;;5046319;28;20029;-51
2024/01/13 03:20:15;;;;;;;7.05;2.15;;;3.30;99.90;;;;;;5049763;28;20519;-51
2024/01/13 03:22:41;;;;;;;6.40;1.70;;;3.30;99.90;;;;;;5043020;28;20851;-52
2024/01/13 03:25:08;;;;;;;9.88;2.80;;;3.20;99.90;;;;;;5032902;28;20506;-59
2024/01/13 03:27:33;;;;;;;6.07;2.50;;;3.20;99.90;;;;;;5041841;28;20056;-58
2024/01/13 03:30:00;;;;;;;3.25;0.98;;;3.30;99.90;;;;;;5048643;28;20133;-58
2024/01/13 03:32:31;;;;;;;3.85;1.35;;;3.20;99.90;;;;;;5039332;28;20612;-57
2024/01/13 03:34:57;;;;;;;5.88;1.75;;;3.30;99.90;;;;;;5044787;28;20147;-60
2024/01/13 03:37:22;;;;;;;5.85;1.25;;;3.20;99.90;;;;;;5043816;28;20044;-48
2024/01/13 03:39:48;;;;;;;3.28;1.05;;;3.20;99.90;;;;;;5023791;28;20051;-57
2024/01/13 03:42:17;;;;;;;2.25;0.70;;;3.10;99.90;;;;;;5049161;28;20112;-53
2024/01/13 03:44:42;;;;;;;7.55;2.47;;;3.20;99.90;;;;;;5046253;28;20068;-50
2024/01/13 03:47:08;;;;;;;7.65;1.50;;;3.20;99.90;;;;;;5047764;28;20036;-58
2024/01/13 03:49:34;;;;;;;5.40;2.08;;;3.30;99.90;;;;;;5046685;28;20052;-60
2024/01/13 03:51:59;;;;;;;7.45;1.83;;;3.20;99.90;;;;;;5040949;28;20767;-60
2024/01/13 03:54:25;;;;;;;3.53;1.05;;;3.20;99.90;;;;;;5049340;28;20036;-53
2024/01/13 03:56:51;;;;;;;0.95;0.90;;;3.30;99.90;;;;;;5045474;28;20044;-55
2024/01/13 03:59:17;;;;;;;4.80;1.05;;;3.20;99.90;;;;;;5046933;28;20084;-61
2024/01/13 04:01:43;;;;;;;1.33;0.43;;;3.20;99.90;;;;;;5042293;28;20079;-59
2024/01/13 04:04:09;;;;;;;1.77;0.68;;;3.20;99.90;;;;;;5046287;28;20123;-54
2024/01/13 04:06:44;;;;;;;4.72;1.13;;;3.20;99.90;;;;;;5045244;28;20080;-51
2024/01/13 04:09:09;;;;;;;0.30;0.30;;;3.10;99.90;;;;;;5012917;28;20037;-61
2024/01/13 04:11:35;;;;;;;0.47;0.40;;;3.20;99.90;;;;;;5030012;28;20517;-53
2024/01/13 04:14:01;;;;;;;5.28;2.58;;;3.20;99.90;;;;;;5047253;28;20043;-58
2024/01/13 04:16:27;;;;;;;1.05;0.40;;;3.10;99.90;;;;;;5047433;28;20102;-56
2024/01/13 04:18:53;;;;;;;2.58;0.50;;;3.20;99.90;;;;;;5044538;28;20116;-57
2024/01/13 04:21:18;;;;;;;1.88;0.98;;;3.20;99.90;;;;;;5031409;28;20060;-49
2024/01/13 04:23:45;;;;;;;1.80;0.57;;;3.20;99.90;;;;;;5042108;28;20119;-58
2024/01/13 04:26:11;;;;;;;7.82;1.58;;;3.30;99.90;;;;;;5041970;28;20037;-54
2024/01/13 04:28:37;;;;;;;2.30;0.82;;;3.20;99.90;;;;;;5044777;28;20066;-53
2024/01/13 04:31:04;;;;;;;3.15;1.00;;;3.20;99.90;;;;;;5048653;28;20045;-57
2024/01/13 04:33:30;;;;;;;4.40;0.73;;;3.30;99.90;;;;;;5029329;28;20095;-55
2024/01/13 04:35:56;;;;;;;1.85;0.22;;;3.30;99.90;;;;;;5032431;28;20521;-55
2024/01/13 04:38:21;;;;;;;2.35;0.38;;;3.20;99.90;;;;;;5047065;28;20144;-51
2024/01/13 04:40:49;;;;;;;8.82;2.53;;;3.20;99.90;;;;;;5045254;28;20513;-59
2024/01/13 04:43:15;;;;;;;2.40;0.70;;;3.30;99.90;;;;;;5047924;28;20040;-52
2024/01/13 04:45:40;;;;;;;4.25;1.60;;;3.30;99.90;;;;;;5044534;28;20040;-50
2024/01/13 04:48:07;;;;;;;0.43;0.43;;;3.30;99.90;;;;;;5043210;28;20040;-58
2024/01/13 04:50:32;;;;;;;7.78;0.82;;;3.40;99.90;;;;;;5045052;28;20049;-57
2024/01/13 04:52:58;;;;;;;1.05;0.50;;;3.30;99.90;;;;;;5027003;28;20044;-48
2024/01/13 04:55:24;;;;;;;0.90;0.40;;;3.30;99.90;;;;;;5041514;28;20116;-58
2024/01/13 04:57:51;;;;;;;4.13;1.52;;;3.30;99.90;;;;;;5046000;28;20489;-58
2024/01/13 05:00:17;;;;;;;4.60;0.68;;;3.30;99.90;;;;;;5048730;28;20095;-51
2024/01/13 05:02:42;;;;;;;1.48;0.50;;;3.30;99.90;;;;;;5039923;28;20036;-55
2024/01/13 05:05:08;;;;;;;0.20;0.20;;;3.30;99.90;;;;;;5044721;28;20045;-51
2024/01/13 05:07:36;;;;;;;0.15;0.15;;;3.40;99.90;;;;;;5026140;28;20051;-60
2024/01/13 05:10:04;;;;;;;1.75;0.50;;;3.30;99.90;;;;;;5044777;28;20041;-56
2024/01/13 05:12:30;;;;;;;2.85;1.15;;;3.30;99.90;;;;;;5022153;28;20045;-55
2024/01/13 05:14:55;;;;;;;3.42;0.80;;;3.30;99.90;;;;;;5046201;28;20033;-52
2024/01/13 05:17:21;;;;;;;0.30;0.30;;;3.30;99.90;;;;;;5044029;28;20355;-49
2024/01/13 05:19:47;;;;;;;0.10;0.10;;;3.20;99.90;;;;;;5027152;28;20564;-56
2024/01/13 05:22:12;;;;;;;0.10;0.10;;;3.20;99.90;;;;;;5045911;28;20053;-60
2024/01/13 05:24:38;;;;;;;3.95;1.00;;;3.20;99.90;;;;;;5040626;28;20041;-61
2024/01/13 05:27:04;;;;;;;3.40;1.00;;;3.20;99.90;;;;;;5047021;28;20037;-54
2024/01/13 05:29:30;;;;;;;1.85;0.75;;;3.20;99.90;;;;;;5046985;28;20133;-61
2024/01/13 05:31:56;;;;;;;0.50;0.47;;;3.20;99.90;;;;;;5025016;28;20586;-61
2024/01/13 05:34:21;;;;;;;2.30;1.17;;;3.20;99.90;;;;;;5042230;28;20297;-57
2024/01/13 05:36:47;;;;;;;0.30;0.30;;;3.20;99.90;;;;;;5042094;28;20057;-59
2024/01/13 05:39:13;;;;;;;0.85;0.80;;;3.30;99.90;;;;;;5010192;28;20041;-56
2024/01/13 05:41:39;;;;;;;1.67;0.40;;;3.20;99.90;;;;;;5023621;28;20103;-58
2024/01/13 05:44:04;;;;;;;1.55;0.70;;;3.10;99.90;;;;;;5051374;28;20394;-55
2024/01/13 05:46:30;;;;;;;2.10;0.55;;;3.20;99.90;;;;;;5044862;28;20041;-57
2024/01/13 05:48:56;;;;;;;4.45;0.60;;;3.20;99.90;;;;;;5044921;28;20045;-57
2024/01/13 05:51:22;;;;;;;4.05;1.60;;;3.20;99.90;;;;;;5025104;28;20175;-55
2024/01/13 05:53:48;;;;;;;0.60;0.40;;;3.20;99.90;;;;;;5051139;28;20033;-55
2024/01/13 05:56:13;;;;;;;3.40;0.65;;;3.20;99.90;;;;;;5045445;28;20037;-59
2024/01/13 05:58:42;;;;;;;2.00;0.85;;;3.20;99.90;;;;;;5027609;28;20048;-53
2024/01/13 06:01:07;;;;;;;2.28;0.70;;;3.10;99.90;;;;;;5050491;28;20053;-62
2024/01/13 06:03:33;;;;;;;3.00;0.90;;;3.20;99.90;;;;;;5030091;28;20456;-51
2024/01/13 06:05:59;;;;;;;3.15;0.68;;;3.10;99.90;;;;;;5032207;28;20076;-60
2024/01/13 06:08:24;;;;;;;4.13;0.93;;;3.20;99.90;;;;;;5043659;28;20041;-51
2024/01/13 06:10:51;;;;;;;3.30;0.80;;;3.10;99.90;;;;;;5043142;28;20048;-58
2024/01/13 06:13:16;;;;;;;1.95;0.80;;;3.20;99.90;;;;;;5052047;28;20204;-51
2024/01/13 06:15:42;;;;;;;0.10;0.10;;;3.10;99.90;;;;;;5049843;28;20055;-56
2024/01/13 06:18:08;;;;;;;2.65;0.50;;;3.20;99.90;;;;;;5045043;28;20106;-55
2024/01/13 06:20:34;;;;;;;0.70;0.70;;;3.20;99.90;;;;;;5050362;28;20057;-62
2024/01/13 06:23:06;;;;;;;1.77;0.80;;;3.20;99.90;;;;;;5045694;28;20063;-59
2024/01/13 06:25:32;;;;;;;0.10;0.10;;;3.20;99.90;;;;;;5029006;28;20056;-59
2024/01/13 06:27:57;;;;;;;0.15;0.15;;;3.20;99.90;;;;;;5047247;28;20052;-55
2024/01/13 06:30:23;;;;;;;1.00;0.95;;;3.10;99.90;;;;;;5049425;28;20325;-57
2024/01/13 06:32:49;;;;;;;1.60;0.50;;;3.20;99.90;;;;;;5042520;28;20052;-58
2024/01/13 06:35:14;;;;;;;6.65;0.88;;;3.20;99.90;;;;;;5049329;28;20095;-49
2024/01/13 06:37:40;;;;;;;4.30;1.15;;;3.30;99.90;;;;;;5044328;28;20569;-61
2024/01/13 06:40:08;;;;;;;0.70;0.70;;;3.20;99.90;;;;;;5047349;28;20041;-53
2024/01/13 06:42:34;;;;;;;1.95;0.82;;;3.20;99.90;;;;;;5045715;28;20037;-55
2024/01/13 06:45:00;;;;;;;4.43;1.15;;;3.20;99.90;;;;;;5051666;28;20069;-58
2024/01/13 06:47:26;;;;;;;6.50;0.75;;;3.20;99.90;;;;;;5026876;28;20372;-59
2024/01/13 06:49:51;;;;;;;0.28;0.28;;;3.20;99.90;;;;;;5030474;28;20040;-50
2024/01/13 06:52:17;;;;;;;1.95;0.70;;;3.20;99.90;;;;;;5049470;28;20078;-56
2024/01/13 06:54:43;;;;;;;1.55;0.70;;;3.20;99.90;;;;;;5022192;28;20096;-54
2024/01/13 06:57:09;;;;;;;0.75;0.75;;;3.20;99.90;;;;;;5048242;28;20051;-55
2024/01/13 06:59:34;;;;;;;0.30;0.30;;;3.20;99.90;;;;;;5047277;28;20041;-59
2024/01/13 07:02:00;;;;;;;0.55;0.55;;;3.30;99.90;;;;;;5045749;28;20049;-60
2024/01/13 07:04:27;;;;;;;0.40;0.38;;;3.30;99.90;;;;;;5010157;28;20077;-52
2024/01/13 07:06:53;;;;;;;0.45;0.45;;;3.30;99.90;;;;;;5046149;28;20072;-58
2024/01/13 07:09:19;;;;;;;0.30;0.22;;;3.20;99.90;;;;;;5042475;28;20533;-56
2024/01/13 07:11:52;;;;;;;0.00;0.00;;;3.30;99.90;;;;;;5009168;28;20056;-58
2024/01/13 07:14:17;;;;;;;1.90;0.47;;;3.30;99.90;;;;;;5015007;28;20052;-59
2024/01/13 07:16:43;;;;;;;0.05;0.05;;;3.30;99.90;;;;;;5044695;28;20044;-58
2024/01/13 07:19:09;;;;;;;6.93;0.57;;;3.30;99.90;;;;;;5047352;28;20056;-60
2024/01/13 07:21:35;;;;;;;0.45;0.45;;;3.30;99.90;;;;;;5047641;28;20081;-59
2024/01/13 07:24:02;;;;;;;0.75;0.73;;;3.30;99.90;;;;;;5045176;28;20138;-56
2024/01/13 07:26:29;;;;;;;2.15;0.70;;;3.40;99.90;;;;;;5043650;28;20615;-49
2024/01/13 07:28:55;;;;;;;1.10;0.60;;;3.30;99.90;;;;;;5016386;28;20175;-59
2024/01/13 07:31:21;;;;;;;1.25;0.98;;;3.30;99.90;;;;;;5043502;28;20109;-60
2024/01/13 07:33:47;;;;;;;0.43;0.38;;;3.30;99.90;;;;;;5045560;28;20063;-56
2024/01/13 07:36:13;;;;;;;2.05;0.90;;;3.30;99.90;;;;;;5045987;28;20052;-56
2024/01/13 07:38:40;;;;;;;0.77;0.65;;;3.30;99.90;;;;;;5031291;28;20048;-59
2024/01/13 07:41:07;;;;;;;0.32;0.32;;;3.30;99.90;;;;;;5045389;28;20097;-58
2024/01/13 07:43:32;;;;;;;0.45;0.40;;;3.40;99.90;;;;;;5044025;28;20528;-55
2024/01/13 07:45:59;;;;;;;0.50;0.50;;;3.40;99.90;;;;;;5043969;28;20128;-56
2024/01/13 07:48:25;;;;;;;0.20;0.20;;;3.40;99.90;;;;;;5045948;28;20060;-53
2024/01/13 07:50:51;;;;;;;0.20;0.20;;;3.40;99.90;;;;;;5015256;28;20621;-61
2024/01/13 07:53:16;;;;;;;1.98;0.40;;;3.40;99.90;;;;;;5043805;28;20159;-62
2024/01/13 07:55:43;;;;;;;1.55;0.43;;;3.40;99.90;;;;;;5045763;28;20045;-60
2024/01/13 07:58:08;;;;;;;0.22;0.22;;;3.40;99.90;;;;;;5031549;28;20041;-58
2024/01/13 08:00:34;;;;;;;0.43;0.43;;;3.50;99.90;;;;;;5045663;28;20486;-58
2024/01/13 08:03:00;;;;;;;0.32;0.30;;;3.50;99.90;;;;;;5019716;28;20131;-54
2024/01/13 08:05:29;;;;;;;0.65;0.60;;;3.50;99.90;;;;;;5045865;28;20049;-48
2024/01/13 08:07:54;;;;;;;1.63;0.80;;;3.40;99.90;;;;;;5037558;28;20066;-60
2024/01/13 08:10:20;;;;;;;4.88;1.88;;;3.40;99.90;;;;;;5012721;28;20553;-52
2024/01/13 08:12:46;;;;;;;4.55;2.33;;;3.50;99.90;;;;;;5040939;28;20416;-57
2024/01/13 08:15:12;;;;;;;1.67;1.35;;;3.50;99.90;;;;;;5034538;28;20115;-60
2024/01/13 08:17:38;;;;;;;4.68;2.35;;;3.40;99.90;;;;;;5040853;28;20099;-53
2024/01/13 08:20:04;;;;;;;10.18;3.17;;;3.40;99.90;;;;;;5029947;28;20503;-61
2024/01/13 08:22:30;;;;;;;2.63;0.90;;;3.50;99.90;;;;;;5008863;28;20076;-60
2024/01/13 08:24:56;;;;;;;7.40;2.92;;;3.50;99.90;;;;;;5043148;28;20116;-46
2024/01/13 08:27:23;;;;;;;6.60;4.45;;;3.50;99.90;;;;;;5043277;28;20037;-54
2024/01/13 08:29:48;;;;;;;19.58;8.73;;;3.50;99.90;;;;;;5027996;28;20064;-57
2024/01/13 08:32:14;;;;;;;4.50;2.80;;;3.40;99.90;;;;;;5042687;28;20056;-57
2024/01/13 08:34:41;;;;;;;17.77;6.70;;;3.50;99.90;;;;;;5043564;28;20434;-52
2024/01/13 08:37:07;;;;;;;12.45;4.63;;;3.50;99.90;;;;;;5044715;28;20091;-51
2024/01/13 08:39:33;;;;;;;6.03;2.65;;;3.50;99.90;;;;;;5038485;28;20116;-56
2024/01/13 08:41:59;;;;;;;27.63;12.25;;;3.50;99.90;;;;;;5046061;28;20496;-58
2024/01/13 08:44:25;;;;;;;18.48;9.25;;;3.40;99.90;;;;;;5047072;28;20059;-58
2024/01/13 08:46:51;;;;;;;17.48;9.73;;;3.50;99.90;;;;;;5042090;28;20041;-58
2024/01/13 08:49:17;;;;;;;53.58;23.75;;;3.40;99.90;;;;;;5046754;28;20044;-58
2024/01/13 08:51:42;;;;;;;13.18;8.52;;;3.50;99.90;;;;;;5023767;28;20724;-61
2024/01/13 08:54:08;;;;;;;14.48;7.05;;;3.50;99.90;;;;;;5045503;28;20037;-52
2024/01/13 08:56:34;;;;;;;20.25;9.35;;;3.40;99.90;;;;;;5039628;28;20041;-62
2024/01/13 08:59:02;;;;;;;38.53;19.95;;;3.50;99.90;;;;;;5026469;28;20041;-57
2024/01/13 09:01:27;;;;;;;44.63;18.92;;;3.50;99.90;;;;;;5045308;28;20478;-60
2024/01/13 09:03:53;;;;;;;7.55;4.57;;;3.50;99.90;;;;;;5046662;28;20085;-53
2024/01/13 09:06:19;;;;;;;47.53;24.02;;;3.50;99.90;;;;;;5043287;28;20466;-50
2024/01/13 09:08:44;;;;;;;23.55;13.38;;;3.50;99.90;;;;;;5028221;28;20111;-57
2024/01/13 09:11:10;;;;;;;27.58;14.63;;;3.50;99.90;;;;;;5043902;28;20076;-58
2024/01/13 09:13:36;;;;;;;38.08;20.17;;;3.40;99.90;;;;;;5029652;28;20036;-63
2024/01/13 09:16:02;;;;;;;36.28;18.50;;;3.50;99.90;;;;;;5036890;28;20067;-57
2024/01/13 09:18:29;;;;;;;70.25;31.70;;;3.50;99.90;;;;;;5037311;28;20490;-58
2024/01/13 09:20:55;;;;;;;32.40;17.67;;;3.50;99.90;;;;;;5050105;28;20061;-57
2024/01/13 09:23:21;;;;;;;10.57;5.45;;;3.50;99.90;;;;;;5046811;28;20491;-54
2024/01/13 09:25:47;;;;;;;21.60;9.73;;;3.50;99.90;;;;;;5019838;28;20388;-55
2024/01/13 09:28:13;;;;;;;16.98;8.52;;;3.50;99.90;;;;;;5052929;28;20522;-55
2024/01/13 09:30:40;;;;;;;97.68;43.08;;;3.50;99.90;;;;;;5031669;28;20131;-62
2024/01/13 09:33:05;;;;;;;21.38;10.73;;;3.60;99.90;;;;;;5051905;28;20150;-57
2024/01/13 09:35:31;;;;;;;17.13;9.10;;;3.60;99.90;;;;;;5045694;28;20045;-63
2024/01/13 09:37:58;;;;;;;32.05;18.23;;;3.60;99.90;;;;;;5030732;28;20048;-61
2024/01/13 09:40:25;;;;;;;29.02;12.60;;;3.50;99.90;;;;;;5048604;28;20482;-62
2024/01/13 09:43:00;;;;;;;32.58;17.35;;;3.50;99.90;;;;;;5051855;28;20049;-54
2024/01/13 09:45:27;;;;;;;27.67;13.15;;;3.60;99.90;;;;;;5049340;28;20049;-59
2024/01/13 09:47:57;;;;;;;25.10;11.88;;;3.50;99.90;;;;;;5039784;28;20092;-60
2024/01/13 09:50:23;;;;;;;48.13;24.05;;;3.60;99.90;;;;;;5054098;28;20405;-61
2024/01/13 09:52:48;;;;;;;19.63;10.25;;;3.70;99.90;;;;;;5046806;28;20480;-58
2024/01/13 09:55:17;;;;;;;37.53;17.60;;;3.60;99.90;;;;;;5039175;28;20092;-49
2024/01/13 09:57:43;;;;;;;34.05;17.17;;;3.60;99.90;;;;;;5051087;28;20268;-53
2024/01/13 10:00:09;;;;;;;41.88;20.92;;;3.60;99.90;;;;;;5051786;28;20075;-53
2024/01/13 10:02:35;;;;;;;26.40;15.10;;;3.60;99.90;;;;;;5047698;28;20047;-61
2024/01/13 10:05:01;;;;;;;25.88;13.55;;;3.60;99.90;;;;;;5051596;28;20040;-60
2024/01/13 10:07:34;;;;;;;46.15;24.70;;;3.60;99.90;;;;;;5047390;28;20286;-49
2024/01/13 10:10:05;;;;;;;17.05;10.13;;;3.70;99.90;;;;;;5049874;28;20167;-56
2024/01/13 10:12:31;;;;;;;33.05;17.95;;;3.70;99.90;;;;;;5052529;28;20065;-54
2024/01/13 10:14:57;;;;;;;52.72;25.27;;;3.70;99.90;;;;;;5050929;28;20342;-53
2024/01/13 10:17:25;;;;;;;40.75;17.73;;;3.70;99.90;;;;;;5051517;28;20045;-56
2024/01/13 10:19:51;;;;;;;49.45;26.55;;;3.80;99.90;;;;;;5031813;28;20048;-54
2024/01/13 10:22:18;;;;;;;43.38;20.17;;;3.70;99.90;;;;;;5047639;28;20120;-50
2024/01/13 10:24:44;;;;;;;22.40;9.38;;;3.80;99.90;;;;;;5049494;28;20500;-49
2024/01/13 10:27:09;;;;;;;46.42;21.85;;;3.80;99.90;;;;;;5050406;28;20041;-57
2024/01/13 10:29:35;;;;;;;8.75;4.53;;;3.90;99.90;;;;;;5046439;28;20060;-58
2024/01/13 10:32:04;;;;;;;67.72;30.55;;;3.80;99.90;;;;;;5030193;28;20052;-61
2024/01/13 10:34:30;;;;;;;11.30;6.10;;;3.80;99.90;;;;;;5042757;28;20456;-57
2024/01/13 10:37:09;;;;;;;34.13;17.20;;;3.90;99.90;;;;;;5049680;28;20045;-60
2024/01/13 10:39:36;;;;;;;29.52;14.75;;;3.90;99.90;;;;;;5045448;28;20573;-58
2024/01/13 10:42:11;;;;;;;21.08;10.32;;;4.00;99.90;;;;;;5045689;28;20116;-58
2024/01/13 10:44:42;;;;;;;54.25;25.20;;;4.00;99.90;;;;;;5009453;28;20556;-57
2024/01/13 10:47:14;;;;;;;30.75;15.30;;;4.00;99.90;;;;;;5036942;28;20507;-58
2024/01/13 10:49:42;;;;;;;27.73;14.43;;;4.00;99.90;;;;;;5030385;28;20052;-54
2024/01/13 10:52:13;;;;;;;12.20;7.50;;;4.10;99.90;;;;;;5027084;28;20128;-54
2024/01/13 10:54:40;;;;;;;22.50;8.88;;;4.10;99.90;;;;;;5046628;28;20041;-54
2024/01/13 10:57:06;;;;;;;19.48;9.70;;;4.10;99.90;;;;;;5043214;28;20036;-55
2024/01/13 10:59:35;;;;;;;19.33;9.95;;;4.20;99.90;;;;;;5045627;28;20047;-58
2024/01/13 11:02:03;;;;;;;13.60;6.28;;;4.20;99.90;;;;;;5026529;28;20100;-55
2024/01/13 11:04:31;;;;;;;15.52;8.15;;;4.20;99.90;;;;;;5039890;28;20048;-55
2024/01/13 11:06:56;;;;;;;11.88;6.65;;;4.20;99.90;;;;;;5044643;28;20329;-57
2024/01/13 11:09:24;;;;;;;34.05;13.75;;;4.20;99.90;;;;;;5043812;28;20044;-52
2024/01/13 11:12:24;;;;;;;26.83;11.63;;;4.20;99.90;;;;;;5041858;28;20084;-58
2024/01/13 11:15:03;;;;;;;25.50;12.30;;;4.20;99.90;;;;;;5029302;28;20446;-57
2024/01/13 11:17:30;;;;;;;9.63;5.05;;;4.20;99.90;;;;;;5041220;28;20053;-61
2024/01/13 11:19:55;;;;;;;29.13;15.23;;;4.20;99.90;;;;;;5028682;28;20091;-57
2024/01/13 11:22:34;;;;;;;21.23;7.97;;;4.30;99.90;;;;;;5043260;28;20111;-54
2024/01/13 11:25:00;;;;;;;7.57;4.72;;;4.20;99.90;;;;;;5040363;28;20512;-48
2024/01/13 11:27:28;;;;;;;8.57;4.45;;;4.20;99.90;;;;;;5040087;28;20260;-58
2024/01/13 11:29:55;;;;;;;8.45;4.13;;;4.30;99.90;;;;;;5033698;28;20052;-56
2024/01/13 11:32:24;;;;;;;12.95;6.75;;;4.30;99.90;;;;;;5046503;28;20047;-52
2024/01/13 11:34:50;;;;;;;9.40;5.15;;;4.30;99.90;;;;;;5027162;28;20055;-52
2024/01/13 11:37:16;;;;;;;18.25;10.70;;;4.30;99.90;;;;;;5038654;28;20109;-54
2024/01/13 11:39:51;;;;;;;21.75;9.25;;;4.30;99.90;;;;;;5028687;28;20367;-53
2024/01/13 11:42:17;;;;;;;16.10;8.00;;;4.30;99.90;;;;;;5044932;28;20068;-55
2024/01/13 11:44:49;;;;;;;22.23;9.95;;;4.30;99.90;;;;;;5041268;28;20044;-56
2024/01/13 11:47:27;;;;;;;8.05;4.28;;;4.30;99.90;;;;;;5024851;28;20045;-57
2024/01/13 11:49:53;;;;;;;31.27;13.25;;;4.30;99.90;;;;;;5042857;28;20084;-56
2024/01/13 11:52:32;;;;;;;5.13;4.22;;;4.40;99.90;;;;;;5027826;28;20115;-57
2024/01/13 11:54:58;;;;;;;17.23;7.82;;;4.30;99.90;;;;;;5043647;28;20151;-60
2024/01/13 11:57:24;;;;;;;9.82;5.25;;;4.40;99.90;;;;;;5025851;28;20058;-50
2024/01/13 11:59:50;;;;;;;13.32;7.57;;;4.30;99.90;;;;;;5045276;28;20310;-52
2024/01/13 12:02:16;;;;;;;9.13;5.75;;;4.30;99.90;;;;;;5042797;28;20742;-54
2024/01/13 12:04:42;;;;;;;16.13;4.88;;;4.30;99.90;;;;;;4981457;28;20033;-59
2024/01/13 12:07:11;;;;;;;12.38;6.95;;;4.40;99.90;;;;;;5045832;28;20124;-54
2024/01/13 12:09:40;;;;;;;8.77;4.40;;;4.40;99.90;;;;;;5042534;28;20266;-58
2024/01/13 12:12:07;;;;;;;5.75;3.17;;;4.40;99.90;;;;;;5042573;28;20128;-52
2024/01/13 12:14:35;;;;;;;18.48;9.13;;;4.40;99.90;;;;;;5043499;28;20041;-55
2024/01/13 12:17:03;;;;;;;6.38;3.72;;;4.40;99.90;;;;;;5040167;28;20052;-58
2024/01/13 12:19:36;;;;;;;3.15;2.90;;;4.40;99.90;;;;;;5046522;28;20057;-59
2024/01/13 12:22:04;;;;;;;4.03;2.97;;;4.40;99.90;;;;;;5041049;28;20107;-61
2024/01/13 12:24:31;;;;;;;6.05;3.58;;;4.40;99.90;;;;;;5039522;28;20033;-51
2024/01/13 12:26:57;;;;;;;5.68;3.05;;;4.40;99.90;;;;;;5040832;28;20235;-60
2024/01/13 12:29:30;;;;;;;7.85;3.33;;;4.40;99.90;;;;;;5043777;28;20037;-57
2024/01/13 12:32:03;;;;;;;25.30;7.88;;;4.50;99.90;;;;;;5025611;28;20045;-54
2024/01/13 12:34:30;;;;;;;3.15;1.92;;;4.50;99.90;;;;;;5042873;28;20505;-58
2024/01/13 12:36:57;;;;;;;12.00;4.22;;;4.60;99.90;;;;;;5040652;28;20052;-59
2024/01/13 12:39:24;;;;;;;1.50;1.00;;;4.60;99.90;;;;;;5043897;28;20095;-61
2024/01/13 12:41:51;;;;;;;8.65;2.70;;;4.70;99.90;;;;;;5037847;28;20064;-56
2024/01/13 12:44:17;;;;;;;2.92;1.55;;;4.80;99.90;;;;;;5044060;28;20110;-60
2024/01/13 12:46:43;;;;;;;2.45;1.90;;;4.70;99.90;;;;;;5046005;28;20044;-61
2024/01/13 12:49:14;;;;;;;1.38;0.85;;;4.80;99.90;;;;;;5038241;28;20048;-54